sensor_id;sensor_type;location;lat;lon;timestamp;temperature;humidity
23377;DHT22;14353;46.070;13.222;2022-08-04T00:08:21;33.20;37.10
23377;DHT22;14353;46.070;13.222;2022-08-04T00:10:49;33.20;37.10
23377;DHT22;14353;46.070;13.222;2022-08-04T00:13:22;33.20;37.10
23377;DHT22;14353;46.070;13.222;2022-08-04T00:15:58;33.20;37.10
23377;DHT22;14353;46.070;13.222;2022-08-04T00:18:33;33.20;37.20
23377;DHT22;14353;46.070;13.222;2022-08-04T00:21:02;33.20;37.20
23377;DHT22;14353;46.070;13.222;2022-08-04T00:23:35;33.20;37.20
23377;DHT22;14353;46.070;13.222;2022-08-04T00:26:02;33.20;37.20
23377;DHT22;14353;46.070;13.222;2022-08-04T00:28:28;33.20;37.20
23377;DHT22;14353;46.070;13.222;2022-08-04T00:30:54;33.20;37.30
23377;DHT22;14353;46.070;13.222;2022-08-04T00:33:21;33.20;37.30
23377;DHT22;14353;46.070;13.222;2022-08-04T00:35:48;33.20;37.40
23377;DHT22;14353;46.070;13.222;2022-08-04T00:38:16;33.20;37.40
23377;DHT22;14353;46.070;13.222;2022-08-04T00:43:33;33.20;37.40
23377;DHT22;14353;46.070;13.222;2022-08-04T00:51:34;33.20;37.50
23377;DHT22;14353;46.070;13.222;2022-08-04T00:54:17;33.20;37.50
23377;DHT22;14353;46.070;13.222;2022-08-04T00:57:02;33.10;37.40
23377;DHT22;14353;46.070;13.222;2022-08-04T01:02:35;33.10;37.50
23377;DHT22;14353;46.070;13.222;2022-08-04T01:05:14;33.10;37.50
23377;DHT22;14353;46.070;13.222;2022-08-04T01:08:32;33.10;37.50
23377;DHT22;14353;46.070;13.222;2022-08-04T01:11:25;33.10;37.60
23377;DHT22;14353;46.070;13.222;2022-08-04T01:16:59;33.10;37.60
23377;DHT22;14353;46.070;13.222;2022-08-04T01:28:13;33.10;37.70
23377;DHT22;14353;46.070;13.222;2022-08-04T01:30:48;33.10;37.70
23377;DHT22;14353;46.070;13.222;2022-08-04T01:33:16;33.10;37.70
23377;DHT22;14353;46.070;13.222;2022-08-04T01:36:00;33.10;37.80
23377;DHT22;14353;46.070;13.222;2022-08-04T01:38:36;33.00;37.70
23377;DHT22;14353;46.070;13.222;2022-08-04T01:41:08;33.00;37.60
23377;DHT22;14353;46.070;13.222;2022-08-04T01:43:40;33.00;37.70
23377;DHT22;14353;46.070;13.222;2022-08-04T01:46:14;33.00;37.70
23377;DHT22;14353;46.070;13.222;2022-08-04T01:48:44;33.00;37.70
23377;DHT22;14353;46.070;13.222;2022-08-04T01:51:10;33.00;37.70
23377;DHT22;14353;46.070;13.222;2022-08-04T01:53:41;33.00;37.80
23377;DHT22;14353;46.070;13.222;2022-08-04T01:56:11;33.00;37.80
23377;DHT22;14353;46.070;13.222;2022-08-04T01:58:38;33.00;37.80
23377;DHT22;14353;46.070;13.222;2022-08-04T02:01:09;33.00;37.80
23377;DHT22;14353;46.070;13.222;2022-08-04T02:03:37;33.00;37.80
23377;DHT22;14353;46.070;13.222;2022-08-04T02:06:28;33.00;37.80
23377;DHT22;14353;46.070;13.222;2022-08-04T02:09:11;33.00;37.80
23377;DHT22;14353;46.070;13.222;2022-08-04T02:11:46;33.00;37.80
23377;DHT22;14353;46.070;13.222;2022-08-04T02:17:26;33.00;37.80
23377;DHT22;14353;46.070;13.222;2022-08-04T02:22:32;33.00;37.80
23377;DHT22;14353;46.070;13.222;2022-08-04T02:25:07;33.00;37.80
23377;DHT22;14353;46.070;13.222;2022-08-04T02:27:54;33.00;37.90
23377;DHT22;14353;46.070;13.222;2022-08-04T02:30:26;32.90;37.80
23377;DHT22;14353;46.070;13.222;2022-08-04T02:32:55;33.00;37.90
23377;DHT22;14353;46.070;13.222;2022-08-04T02:35:27;32.90;37.80
23377;DHT22;14353;46.070;13.222;2022-08-04T02:40:50;32.90;37.80
23377;DHT22;14353;46.070;13.222;2022-08-04T02:43:19;32.90;37.80
23377;DHT22;14353;46.070;13.222;2022-08-04T02:45:45;32.90;37.80
23377;DHT22;14353;46.070;13.222;2022-08-04T02:48:13;32.90;37.80
23377;DHT22;14353;46.070;13.222;2022-08-04T02:50:42;32.90;37.90
23377;DHT22;14353;46.070;13.222;2022-08-04T02:53:10;32.90;37.80
23377;DHT22;14353;46.070;13.222;2022-08-04T02:55:39;32.90;37.80
23377;DHT22;14353;46.070;13.222;2022-08-04T02:58:07;32.90;37.90
23377;DHT22;14353;46.070;13.222;2022-08-04T03:00:34;32.90;37.90
23377;DHT22;14353;46.070;13.222;2022-08-04T03:03:25;32.90;38.00
23377;DHT22;14353;46.070;13.222;2022-08-04T03:14:03;32.80;37.90
23377;DHT22;14353;46.070;13.222;2022-08-04T03:30:56;32.80;
23377;DHT22;14353;46.070;13.222;2022-08-04T03:36:10;32.80;38.00
23377;DHT22;14353;46.070;13.222;2022-08-04T03:39:00;32.80;38.00
23377;DHT22;14353;46.070;13.222;2022-08-04T03:52:50;32.80;38.00
23377;DHT22;14353;46.070;13.222;2022-08-04T03:56:10;32.70;38.00
23377;DHT22;14353;46.070;13.222;2022-08-04T04:01:34;32.70;38.10
23377;DHT22;14353;46.070;13.222;2022-08-04T04:04:32;32.70;38.10
23377;DHT22;14353;46.070;13.222;2022-08-04T04:07:27;32.70;38.10
23377;DHT22;14353;46.070;13.222;2022-08-04T04:13:13;32.70;38.70
23377;DHT22;14353;46.070;13.222;2022-08-04T04:19:22;32.70;38.00
23377;DHT22;14353;46.070;13.222;2022-08-04T04:30:44;32.70;37.90
23377;DHT22;14353;46.070;13.222;2022-08-04T04:44:36;32.70;37.90
23377;DHT22;14353;46.070;13.222;2022-08-04T04:47:24;32.70;37.90
23377;DHT22;14353;46.070;13.222;2022-08-04T04:50:15;32.70;37.90
23377;DHT22;14353;46.070;13.222;2022-08-04T04:52:54;32.70;37.90
23377;DHT22;14353;46.070;13.222;2022-08-04T04:55:23;32.70;37.90
23377;DHT22;14353;46.070;13.222;2022-08-04T04:57:57;32.80;37.90
23377;DHT22;14353;46.070;13.222;2022-08-04T05:00:32;32.70;37.80
23377;DHT22;14353;46.070;13.222;2022-08-04T05:06:06;32.70;37.80
23377;DHT22;14353;46.070;13.222;2022-08-04T05:14:19;32.70;37.70
23377;DHT22;14353;46.070;13.222;2022-08-04T05:17:39;32.70;37.70
23377;DHT22;14353;46.070;13.222;2022-08-04T05:20:05;32.80;37.80
23377;DHT22;14353;46.070;13.222;2022-08-04T05:25:03;32.80;37.80
23377;DHT22;14353;46.070;13.222;2022-08-04T05:27:39;32.80;38.40
23377;DHT22;14353;46.070;13.222;2022-08-04T05:30:07;32.80;37.70
23377;DHT22;14353;46.070;13.222;2022-08-04T05:33:04;32.80;37.70
23377;DHT22;14353;46.070;13.222;2022-08-04T05:35:57;32.80;37.70
23377;DHT22;14353;46.070;13.222;2022-08-04T05:38:28;32.80;37.70
23377;DHT22;14353;46.070;13.222;2022-08-04T05:40:56;32.80;37.70
23377;DHT22;14353;46.070;13.222;2022-08-04T05:43:22;32.80;37.60
23377;DHT22;14353;46.070;13.222;2022-08-04T05:45:50;32.80;37.60
23377;DHT22;14353;46.070;13.222;2022-08-04T05:48:17;32.80;37.60
23377;DHT22;14353;46.070;13.222;2022-08-04T05:50:45;32.80;37.80
23377;DHT22;14353;46.070;13.222;2022-08-04T05:53:12;32.80;37.60
23377;DHT22;14353;46.070;13.222;2022-08-04T05:55:39;32.80;37.60
23377;DHT22;14353;46.070;13.222;2022-08-04T05:58:05;32.80;37.60
23377;DHT22;14353;46.070;13.222;2022-08-04T06:00:36;32.80;37.60
23377;DHT22;14353;46.070;13.222;2022-08-04T06:03:04;32.80;37.50
23377;DHT22;14353;46.070;13.222;2022-08-04T06:05:31;32.80;37.60
23377;DHT22;14353;46.070;13.222;2022-08-04T06:07:57;32.80;37.50
23377;DHT22;14353;46.070;13.222;2022-08-04T06:10:24;32.80;37.50
23377;DHT22;14353;46.070;13.222;2022-08-04T06:13:02;32.80;37.50
23377;DHT22;14353;46.070;13.222;2022-08-04T06:15:30;32.80;37.50
23377;DHT22;14353;46.070;13.222;2022-08-04T06:18:08;32.80;37.50
23377;DHT22;14353;46.070;13.222;2022-08-04T06:20:38;32.80;37.50
23377;DHT22;14353;46.070;13.222;2022-08-04T06:23:08;32.80;37.50
23377;DHT22;14353;46.070;13.222;2022-08-04T06:25:47;32.90;37.50
23377;DHT22;14353;46.070;13.222;2022-08-04T06:28:15;32.90;37.50
23377;DHT22;14353;46.070;13.222;2022-08-04T06:30:42;32.90;37.50
23377;DHT22;14353;46.070;13.222;2022-08-04T06:33:15;32.90;37.40
23377;DHT22;14353;46.070;13.222;2022-08-04T06:36:02;32.90;37.40
23377;DHT22;14353;46.070;13.222;2022-08-04T06:38:30;32.90;37.40
23377;DHT22;14353;46.070;13.222;2022-08-04T06:40:57;32.90;37.40
23377;DHT22;14353;46.070;13.222;2022-08-04T06:43:25;32.90;37.40
23377;DHT22;14353;46.070;13.222;2022-08-04T06:45:52;32.90;37.40
23377;DHT22;14353;46.070;13.222;2022-08-04T06:48:19;32.90;37.30
23377;DHT22;14353;46.070;13.222;2022-08-04T06:50:48;32.90;37.30
23377;DHT22;14353;46.070;13.222;2022-08-04T06:53:15;33.00;37.30
23377;DHT22;14353;46.070;13.222;2022-08-04T06:55:44;32.90;37.20
23377;DHT22;14353;46.070;13.222;2022-08-04T06:58:11;32.90;37.20
23377;DHT22;14353;46.070;13.222;2022-08-04T07:00:39;33.00;37.20
23377;DHT22;14353;46.070;13.222;2022-08-04T07:03:06;33.00;37.20
23377;DHT22;14353;46.070;13.222;2022-08-04T07:05:35;33.00;37.20
23377;DHT22;14353;46.070;13.222;2022-08-04T07:08:02;33.00;37.10
23377;DHT22;14353;46.070;13.222;2022-08-04T07:10:29;33.00;37.10
23377;DHT22;14353;46.070;13.222;2022-08-04T07:12:57;33.00;37.10
23377;DHT22;14353;46.070;13.222;2022-08-04T07:15:24;33.00;37.10
23377;DHT22;14353;46.070;13.222;2022-08-04T07:17:51;33.00;37.00
23377;DHT22;14353;46.070;13.222;2022-08-04T07:20:17;33.00;37.00
23377;DHT22;14353;46.070;13.222;2022-08-04T07:22:45;33.00;37.00
23377;DHT22;14353;46.070;13.222;2022-08-04T07:25:14;33.00;37.00
23377;DHT22;14353;46.070;13.222;2022-08-04T07:27:42;33.00;37.00
23377;DHT22;14353;46.070;13.222;2022-08-04T07:30:08;33.10;37.10
23377;DHT22;14353;46.070;13.222;2022-08-04T07:32:35;33.10;37.10
23377;DHT22;14353;46.070;13.222;2022-08-04T07:35:03;33.00;36.90
23377;DHT22;14353;46.070;13.222;2022-08-04T07:37:30;33.10;36.80
23377;DHT22;14353;46.070;13.222;2022-08-04T07:39:57;33.10;36.90
23377;DHT22;14353;46.070;13.222;2022-08-04T07:42:23;33.10;36.90
23377;DHT22;14353;46.070;13.222;2022-08-04T07:44:49;33.10;36.90
23377;DHT22;14353;46.070;13.222;2022-08-04T07:47:15;33.10;36.90
23377;DHT22;14353;46.070;13.222;2022-08-04T07:49:42;33.10;36.50
23377;DHT22;14353;46.070;13.222;2022-08-04T07:52:08;33.10;36.50
23377;DHT22;14353;46.070;13.222;2022-08-04T07:54:34;33.10;36.40
23377;DHT22;14353;46.070;13.222;2022-08-04T07:57:02;33.20;36.10
23377;DHT22;14353;46.070;13.222;2022-08-04T07:59:28;33.10;35.90
23377;DHT22;14353;46.070;13.222;2022-08-04T08:01:54;33.10;36.10
23377;DHT22;14353;46.070;13.222;2022-08-04T08:04:23;33.20;36.10
23377;DHT22;14353;46.070;13.222;2022-08-04T08:06:50;33.20;36.10
23377;DHT22;14353;46.070;13.222;2022-08-04T08:09:17;33.10;36.20
23377;DHT22;14353;46.070;13.222;2022-08-04T08:11:48;33.10;36.30
23377;DHT22;14353;46.070;13.222;2022-08-04T08:14:18;33.20;36.50
23377;DHT22;14353;46.070;13.222;2022-08-04T08:16:44;33.20;36.60
23377;DHT22;14353;46.070;13.222;2022-08-04T08:19:11;33.20;36.70
23377;DHT22;14353;46.070;13.222;2022-08-04T08:21:37;33.20;36.70
23377;DHT22;14353;46.070;13.222;2022-08-04T08:24:04;33.20;35.90
23377;DHT22;14353;46.070;13.222;2022-08-04T08:26:30;33.20;36.50
23377;DHT22;14353;46.070;13.222;2022-08-04T08:28:57;33.20;36.60
23377;DHT22;14353;46.070;13.222;2022-08-04T08:31:23;33.20;36.60
23377;DHT22;14353;46.070;13.222;2022-08-04T08:33:50;33.20;36.60
23377;DHT22;14353;46.070;13.222;2022-08-04T08:36:23;33.20;36.30
23377;DHT22;14353;46.070;13.222;2022-08-04T08:39:20;33.20;36.50
23377;DHT22;14353;46.070;13.222;2022-08-04T08:42:04;33.20;36.50
23377;DHT22;14353;46.070;13.222;2022-08-04T08:53:34;33.30;35.30
23377;DHT22;14353;46.070;13.222;2022-08-04T08:59:25;33.30;35.10
23377;DHT22;14353;46.070;13.222;2022-08-04T09:10:39;33.30;34.60
23377;DHT22;14353;46.070;13.222;2022-08-04T09:13:16;33.40;35.00
23377;DHT22;14353;46.070;13.222;2022-08-04T09:16:10;33.40;34.60
23377;DHT22;14353;46.070;13.222;2022-08-04T09:18:44;33.40;34.80
23377;DHT22;14353;46.070;13.222;2022-08-04T09:21:21;33.40;35.50
23377;DHT22;14353;46.070;13.222;2022-08-04T09:26:28;33.30;35.60
23377;DHT22;14353;46.070;13.222;2022-08-04T09:29:13;33.30;35.60
23377;DHT22;14353;46.070;13.222;2022-08-04T09:31:52;33.40;35.60
23377;DHT22;14353;46.070;13.222;2022-08-04T09:45:32;33.40;35.50
23377;DHT22;14353;46.070;13.222;2022-08-04T09:48:24;33.40;35.50
23377;DHT22;14353;46.070;13.222;2022-08-04T09:50:57;33.40;35.40
23377;DHT22;14353;46.070;13.222;2022-08-04T09:53:41;33.50;35.30
23377;DHT22;14353;46.070;13.222;2022-08-04T09:56:22;33.50;35.30
23377;DHT22;14353;46.070;13.222;2022-08-04T10:01:28;33.50;34.80
23377;DHT22;14353;46.070;13.222;2022-08-04T10:03:59;33.50;35.00
23377;DHT22;14353;46.070;13.222;2022-08-04T10:07:07;33.50;34.90
23377;DHT22;14353;46.070;13.222;2022-08-04T10:15:08;33.50;35.00
23377;DHT22;14353;46.070;13.222;2022-08-04T10:20:45;33.50;35.00
23377;DHT22;14353;46.070;13.222;2022-08-04T10:23:33;33.60;34.70
23377;DHT22;14353;46.070;13.222;2022-08-04T10:28:45;33.60;34.90
23377;DHT22;14353;46.070;13.222;2022-08-04T10:31:20;33.60;34.80
23377;DHT22;14353;46.070;13.222;2022-08-04T10:34:18;33.60;34.80
23377;DHT22;14353;46.070;13.222;2022-08-04T10:39:21;33.60;35.50
23377;DHT22;14353;46.070;13.222;2022-08-04T10:41:59;33.60;34.80
23377;DHT22;14353;46.070;13.222;2022-08-04T10:47:28;33.70;34.60
23377;DHT22;14353;46.070;13.222;2022-08-04T10:50:00;33.70;34.50
23377;DHT22;14353;46.070;13.222;2022-08-04T10:52:50;33.70;34.50
23377;DHT22;14353;46.070;13.222;2022-08-04T10:55:47;33.70;34.60
23377;DHT22;14353;46.070;13.222;2022-08-04T10:58:22;33.70;34.50
23377;DHT22;14353;46.070;13.222;2022-08-04T11:00:51;33.70;34.60
23377;DHT22;14353;46.070;13.222;2022-08-04T11:03:36;33.70;34.30
23377;DHT22;14353;46.070;13.222;2022-08-04T11:06:03;33.70;34.40
23377;DHT22;14353;46.070;13.222;2022-08-04T11:08:46;33.70;34.30
23377;DHT22;14353;46.070;13.222;2022-08-04T11:11:20;33.70;34.30
23377;DHT22;14353;46.070;13.222;2022-08-04T11:16:23;33.80;34.30
23377;DHT22;14353;46.070;13.222;2022-08-04T11:21:42;33.80;34.20
23377;DHT22;14353;46.070;13.222;2022-08-04T11:27:10;33.80;34.10
23377;DHT22;14353;46.070;13.222;2022-08-04T11:38:38;33.90;34.20
23377;DHT22;14353;46.070;13.222;2022-08-04T11:41:11;33.90;34.20
23377;DHT22;14353;46.070;13.222;2022-08-04T11:43:44;33.90;34.10
23377;DHT22;14353;46.070;13.222;2022-08-04T11:46:21;33.90;34.20
23377;DHT22;14353;46.070;13.222;2022-08-04T11:49:15;34.00;34.10
23377;DHT22;14353;46.070;13.222;2022-08-04T11:51:38;34.00;34.10
23377;DHT22;14353;46.070;13.222;2022-08-04T11:54:05;34.00;34.00
23377;DHT22;14353;46.070;13.222;2022-08-04T11:56:31;34.00;34.00
23377;DHT22;14353;46.070;13.222;2022-08-04T11:58:57;34.10;34.00
23377;DHT22;14353;46.070;13.222;2022-08-04T12:01:33;34.10;34.00
23377;DHT22;14353;46.070;13.222;2022-08-04T12:07:19;34.10;34.00
23377;DHT22;14353;46.070;13.222;2022-08-04T12:15:25;34.20;34.00
23377;DHT22;14353;46.070;13.222;2022-08-04T12:20:29;34.30;33.90
23377;DHT22;14353;46.070;13.222;2022-08-04T12:23:00;34.30;33.90
23377;DHT22;14353;46.070;13.222;2022-08-04T12:25:35;34.30;33.80
23377;DHT22;14353;46.070;13.222;2022-08-04T12:28:15;34.30;33.80
23377;DHT22;14353;46.070;13.222;2022-08-04T12:30:53;34.40;33.90
23377;DHT22;14353;46.070;13.222;2022-08-04T12:33:27;34.40;33.80
23377;DHT22;14353;46.070;13.222;2022-08-04T12:36:09;34.40;33.70
23377;DHT22;14353;46.070;13.222;2022-08-04T12:38:51;34.40;33.70
23377;DHT22;14353;46.070;13.222;2022-08-04T12:41:23;34.40;33.60
23377;DHT22;14353;46.070;13.222;2022-08-04T12:43:50;34.50;33.70
23377;DHT22;14353;46.070;13.222;2022-08-04T12:48:46;34.60;33.40
23377;DHT22;14353;46.070;13.222;2022-08-04T12:51:12;34.60;33.40
23377;DHT22;14353;46.070;13.222;2022-08-04T12:53:41;34.60;33.40
23377;DHT22;14353;46.070;13.222;2022-08-04T12:56:12;34.60;33.40
23377;DHT22;14353;46.070;13.222;2022-08-04T12:58:43;34.60;33.20
23377;DHT22;14353;46.070;13.222;2022-08-04T13:01:22;34.70;33.30
23377;DHT22;14353;46.070;13.222;2022-08-04T13:03:54;34.70;33.30
23377;DHT22;14353;46.070;13.222;2022-08-04T13:06:26;34.70;33.30
23377;DHT22;14353;46.070;13.222;2022-08-04T13:08:54;34.70;33.30
23377;DHT22;14353;46.070;13.222;2022-08-04T13:11:21;34.70;33.20
23377;DHT22;14353;46.070;13.222;2022-08-04T13:13:52;34.70;33.30
23377;DHT22;14353;46.070;13.222;2022-08-04T13:16:29;34.70;33.20
23377;DHT22;14353;46.070;13.222;2022-08-04T13:18:56;34.80;33.30
23377;DHT22;14353;46.070;13.222;2022-08-04T13:21:24;34.80;33.30
23377;DHT22;14353;46.070;13.222;2022-08-04T13:24:00;34.80;33.10
23377;DHT22;14353;46.070;13.222;2022-08-04T13:26:28;34.80;33.10
23377;DHT22;14353;46.070;13.222;2022-08-04T13:29:01;34.90;33.10
23377;DHT22;14353;46.070;13.222;2022-08-04T13:31:27;34.90;33.10
23377;DHT22;14353;46.070;13.222;2022-08-04T13:34:05;34.90;32.90
23377;DHT22;14353;46.070;13.222;2022-08-04T13:36:34;35.00;33.00
23377;DHT22;14353;46.070;13.222;2022-08-04T13:39:26;35.00;33.00
23377;DHT22;14353;46.070;13.222;2022-08-04T13:41:55;35.00;32.90
23377;DHT22;14353;46.070;13.222;2022-08-04T13:44:27;35.00;32.80
23377;DHT22;14353;46.070;13.222;2022-08-04T13:46:56;35.10;32.90
23377;DHT22;14353;46.070;13.222;2022-08-04T13:49:23;35.10;32.90
23377;DHT22;14353;46.070;13.222;2022-08-04T13:51:58;35.10;32.90
23377;DHT22;14353;46.070;13.222;2022-08-04T13:54:41;35.10;32.90
23377;DHT22;14353;46.070;13.222;2022-08-04T13:57:18;35.10;32.80
23377;DHT22;14353;46.070;13.222;2022-08-04T13:59:51;35.10;32.80
23377;DHT22;14353;46.070;13.222;2022-08-04T14:02:30;35.10;32.80
23377;DHT22;14353;46.070;13.222;2022-08-04T14:05:03;35.20;32.90
23377;DHT22;14353;46.070;13.222;2022-08-04T14:07:30;35.20;32.80
23377;DHT22;14353;46.070;13.222;2022-08-04T14:09:57;35.20;32.80
23377;DHT22;14353;46.070;13.222;2022-08-04T14:12:23;35.20;32.70
23377;DHT22;14353;46.070;13.222;2022-08-04T14:14:51;35.30;32.70
23377;DHT22;14353;46.070;13.222;2022-08-04T14:17:23;35.30;32.70
23377;DHT22;14353;46.070;13.222;2022-08-04T14:19:55;35.30;32.70
23377;DHT22;14353;46.070;13.222;2022-08-04T14:27:27;35.40;32.70
23377;DHT22;14353;46.070;13.222;2022-08-04T14:29:53;35.30;32.70
23377;DHT22;14353;46.070;13.222;2022-08-04T14:32:19;35.30;32.70
23377;DHT22;14353;46.070;13.222;2022-08-04T14:34:44;35.40;32.70
23377;DHT22;14353;46.070;13.222;2022-08-04T14:37:13;35.40;32.70
23377;DHT22;14353;46.070;13.222;2022-08-04T14:39:42;35.40;32.70
23377;DHT22;14353;46.070;13.222;2022-08-04T14:42:09;35.40;32.70
23377;DHT22;14353;46.070;13.222;2022-08-04T14:44:55;35.40;32.70
23377;DHT22;14353;46.070;13.222;2022-08-04T14:47:41;35.40;32.70
23377;DHT22;14353;46.070;13.222;2022-08-04T14:50:08;35.40;32.60
23377;DHT22;14353;46.070;13.222;2022-08-04T14:52:35;35.50;32.60
23377;DHT22;14353;46.070;13.222;2022-08-04T14:55:21;35.40;32.60
23377;DHT22;14353;46.070;13.222;2022-08-04T14:57:51;35.50;32.60
23377;DHT22;14353;46.070;13.222;2022-08-04T15:00:29;35.50;32.60
23377;DHT22;14353;46.070;13.222;2022-08-04T15:03:03;35.50;32.50
23377;DHT22;14353;46.070;13.222;2022-08-04T15:05:30;35.50;32.50
23377;DHT22;14353;46.070;13.222;2022-08-04T15:07:57;35.50;32.50
23377;DHT22;14353;46.070;13.222;2022-08-04T15:10:24;35.50;32.50
23377;DHT22;14353;46.070;13.222;2022-08-04T15:12:50;35.50;32.50
23377;DHT22;14353;46.070;13.222;2022-08-04T15:15:16;35.60;32.50
23377;DHT22;14353;46.070;13.222;2022-08-04T15:17:42;35.60;32.50
23377;DHT22;14353;46.070;13.222;2022-08-04T15:20:09;35.60;32.40
23377;DHT22;14353;46.070;13.222;2022-08-04T15:22:35;35.60;32.30
23377;DHT22;14353;46.070;13.222;2022-08-04T15:25:01;35.60;32.30
23377;DHT22;14353;46.070;13.222;2022-08-04T15:27:30;35.60;32.30
23377;DHT22;14353;46.070;13.222;2022-08-04T15:30:05;35.60;32.30
23377;DHT22;14353;46.070;13.222;2022-08-04T15:32:32;35.60;32.30
23377;DHT22;14353;46.070;13.222;2022-08-04T15:35:09;35.60;32.30
23377;DHT22;14353;46.070;13.222;2022-08-04T15:45:51;35.70;32.30
23377;DHT22;14353;46.070;13.222;2022-08-04T15:53:27;35.70;32.30
23377;DHT22;14353;46.070;13.222;2022-08-04T15:55:53;35.70;32.40
23377;DHT22;14353;46.070;13.222;2022-08-04T15:58:20;35.70;32.40
23377;DHT22;14353;46.070;13.222;2022-08-04T16:03:40;35.70;32.40
23377;DHT22;14353;46.070;13.222;2022-08-04T16:21:56;35.60;32.40
23377;DHT22;14353;46.070;13.222;2022-08-04T16:24:35;35.60;32.40
23377;DHT22;14353;46.070;13.222;2022-08-04T16:27:06;35.60;32.50
23377;DHT22;14353;46.070;13.222;2022-08-04T16:37:07;35.60;32.40
23377;DHT22;14353;46.070;13.222;2022-08-04T16:39:34;35.60;32.50
23377;DHT22;14353;46.070;13.222;2022-08-04T16:42:29;35.60;32.50
23377;DHT22;14353;46.070;13.222;2022-08-04T16:55:19;35.60;32.70
23377;DHT22;14353;46.070;13.222;2022-08-04T16:57:49;35.50;32.70
23377;DHT22;14353;46.070;13.222;2022-08-04T17:00:17;35.50;32.70
23377;DHT22;14353;46.070;13.222;2022-08-04T17:02:43;35.50;32.80
23377;DHT22;14353;46.070;13.222;2022-08-04T17:05:22;35.50;32.90
23377;DHT22;14353;46.070;13.222;2022-08-04T17:07:53;35.50;32.90
23377;DHT22;14353;46.070;13.222;2022-08-04T17:10:33;35.50;32.90
23377;DHT22;14353;46.070;13.222;2022-08-04T17:13:00;35.40;32.90
23377;DHT22;14353;46.070;13.222;2022-08-04T17:15:26;35.40;33.00
23377;DHT22;14353;46.070;13.222;2022-08-04T17:18:15;35.40;33.00
23377;DHT22;14353;46.070;13.222;2022-08-04T17:20:42;35.40;32.90
23377;DHT22;14353;46.070;13.222;2022-08-04T17:25:59;35.30;33.10
23377;DHT22;14353;46.070;13.222;2022-08-04T17:28:25;35.30;33.20
23377;DHT22;14353;46.070;13.222;2022-08-04T17:30:53;35.30;33.20
23377;DHT22;14353;46.070;13.222;2022-08-04T17:33:18;35.30;33.20
23377;DHT22;14353;46.070;13.222;2022-08-04T17:35:45;35.30;33.30
23377;DHT22;14353;46.070;13.222;2022-08-04T17:38:11;35.30;33.30
23377;DHT22;14353;46.070;13.222;2022-08-04T17:41:01;35.30;33.40
23377;DHT22;14353;46.070;13.222;2022-08-04T17:46:21;35.30;33.50
23377;DHT22;14353;46.070;13.222;2022-08-04T17:49:00;35.20;33.40
23377;DHT22;14353;46.070;13.222;2022-08-04T17:51:53;35.20;33.40
23377;DHT22;14353;46.070;13.222;2022-08-04T17:56:54;35.10;33.50
23377;DHT22;14353;46.070;13.222;2022-08-04T17:59:27;35.10;33.50
23377;DHT22;14353;46.070;13.222;2022-08-04T18:01:59;35.10;33.60
23377;DHT22;14353;46.070;13.222;2022-08-04T18:09:57;35.10;33.90
23377;DHT22;14353;46.070;13.222;2022-08-04T18:12:26;35.00;33.80
23377;DHT22;14353;46.070;13.222;2022-08-04T18:15:00;35.00;34.10
23377;DHT22;14353;46.070;13.222;2022-08-04T18:17:40;35.00;34.10
23377;DHT22;14353;46.070;13.222;2022-08-04T18:20:12;34.90;34.10
23377;DHT22;14353;46.070;13.222;2022-08-04T18:22:42;34.90;34.10
23377;DHT22;14353;46.070;13.222;2022-08-04T18:25:10;34.90;34.20
23377;DHT22;14353;46.070;13.222;2022-08-04T18:27:49;34.90;34.30
23377;DHT22;14353;46.070;13.222;2022-08-04T18:30:21;34.80;34.30
23377;DHT22;14353;46.070;13.222;2022-08-04T18:32:47;34.80;34.50
23377;DHT22;14353;46.070;13.222;2022-08-04T18:35:13;34.80;34.50
23377;DHT22;14353;46.070;13.222;2022-08-04T18:37:39;34.80;34.60
23377;DHT22;14353;46.070;13.222;2022-08-04T18:40:07;34.80;34.60
23377;DHT22;14353;46.070;13.222;2022-08-04T18:42:34;34.70;34.60
23377;DHT22;14353;46.070;13.222;2022-08-04T18:45:00;34.70;34.80
23377;DHT22;14353;46.070;13.222;2022-08-04T18:47:26;34.70;34.80
23377;DHT22;14353;46.070;13.222;2022-08-04T18:49:53;34.70;34.90
23377;DHT22;14353;46.070;13.222;2022-08-04T18:52:19;34.70;35.00
23377;DHT22;14353;46.070;13.222;2022-08-04T18:54:45;34.70;35.00
23377;DHT22;14353;46.070;13.222;2022-08-04T18:57:11;34.60;35.00
23377;DHT22;14353;46.070;13.222;2022-08-04T18:59:36;34.60;35.00
23377;DHT22;14353;46.070;13.222;2022-08-04T19:02:02;34.60;35.10
23377;DHT22;14353;46.070;13.222;2022-08-04T19:04:28;34.60;35.10
23377;DHT22;14353;46.070;13.222;2022-08-04T19:06:54;34.60;35.20
23377;DHT22;14353;46.070;13.222;2022-08-04T19:09:20;34.60;35.20
23377;DHT22;14353;46.070;13.222;2022-08-04T19:11:47;34.60;35.20
23377;DHT22;14353;46.070;13.222;2022-08-04T19:14:13;34.50;35.10
23377;DHT22;14353;46.070;13.222;2022-08-04T19:16:39;34.50;35.20
23377;DHT22;14353;46.070;13.222;2022-08-04T19:19:05;34.50;35.30
23377;DHT22;14353;46.070;13.222;2022-08-04T19:21:31;34.50;35.30
23377;DHT22;14353;46.070;13.222;2022-08-04T19:23:58;34.50;35.30
23377;DHT22;14353;46.070;13.222;2022-08-04T19:26:24;34.50;35.40
23377;DHT22;14353;46.070;13.222;2022-08-04T19:28:51;34.40;35.40
23377;DHT22;14353;46.070;13.222;2022-08-04T19:31:17;34.40;35.40
23377;DHT22;14353;46.070;13.222;2022-08-04T19:33:44;34.40;35.50
23377;DHT22;14353;46.070;13.222;2022-08-04T19:36:10;34.40;35.50
23377;DHT22;14353;46.070;13.222;2022-08-04T19:38:36;34.40;35.50
23377;DHT22;14353;46.070;13.222;2022-08-04T19:41:04;34.40;35.50
23377;DHT22;14353;46.070;13.222;2022-08-04T19:43:31;34.40;35.50
23377;DHT22;14353;46.070;13.222;2022-08-04T19:45:57;34.40;35.50
23377;DHT22;14353;46.070;13.222;2022-08-04T19:48:23;34.40;35.60
23377;DHT22;14353;46.070;13.222;2022-08-04T19:50:49;34.40;35.60
23377;DHT22;14353;46.070;13.222;2022-08-04T19:53:15;34.40;35.60
23377;DHT22;14353;46.070;13.222;2022-08-04T19:55:43;34.40;35.60
23377;DHT22;14353;46.070;13.222;2022-08-04T19:58:10;34.40;35.70
23377;DHT22;14353;46.070;13.222;2022-08-04T20:00:38;34.40;36.40
23377;DHT22;14353;46.070;13.222;2022-08-04T20:03:07;34.40;35.70
23377;DHT22;14353;46.070;13.222;2022-08-04T20:05:33;34.30;35.60
23377;DHT22;14353;46.070;13.222;2022-08-04T20:07:59;34.30;35.60
23377;DHT22;14353;46.070;13.222;2022-08-04T20:10:24;34.30;35.70
23377;DHT22;14353;46.070;13.222;2022-08-04T20:12:50;34.30;35.80
23377;DHT22;14353;46.070;13.222;2022-08-04T20:15:16;34.30;35.80